sensor_id;sensor_type;location;lat;lon;timestamp;temperature;humidity
14585;DHT22;7379;51.506;11.876;2023-04-24T00:01:45;16.60;60.40
14585;DHT22;7379;51.506;11.876;2023-04-24T00:04:13;16.60;60.50
14585;DHT22;7379;51.506;11.876;2023-04-24T00:06:42;16.60;60.50
14585;DHT22;7379;51.506;11.876;2023-04-24T00:09:08;16.60;60.60
14585;DHT22;7379;51.506;11.876;2023-04-24T00:11:36;16.60;60.70
14585;DHT22;7379;51.506;11.876;2023-04-24T00:14:03;16.50;60.60
14585;DHT22;7379;51.506;11.876;2023-04-24T00:16:30;16.50;60.70
14585;DHT22;7379;51.506;11.876;2023-04-24T00:18:57;16.50;60.70
14585;DHT22;7379;51.506;11.876;2023-04-24T00:21:25;16.50;60.80
14585;DHT22;7379;51.506;11.876;2023-04-24T00:23:52;16.50;60.90
14585;DHT22;7379;51.506;11.876;2023-04-24T00:26:19;16.50;61.00
14585;DHT22;7379;51.506;11.876;2023-04-24T00:28:46;16.50;61.00
14585;DHT22;7379;51.506;11.876;2023-04-24T00:31:13;16.50;61.10
14585;DHT22;7379;51.506;11.876;2023-04-24T00:33:40;16.50;61.10
14585;DHT22;7379;51.506;11.876;2023-04-24T00:36:06;16.40;61.10
14585;DHT22;7379;51.506;11.876;2023-04-24T00:38:35;16.40;61.10
14585;DHT22;7379;51.506;11.876;2023-04-24T00:41:01;16.40;61.20
14585;DHT22;7379;51.506;11.876;2023-04-24T00:43:28;16.40;61.30
14585;DHT22;7379;51.506;11.876;2023-04-24T00:45:55;16.40;61.30
14585;DHT22;7379;51.506;11.876;2023-04-24T00:48:23;16.40;61.40
14585;DHT22;7379;51.506;11.876;2023-04-24T00:50:50;16.40;61.50
14585;DHT22;7379;51.506;11.876;2023-04-24T00:53:17;16.40;61.50
14585;DHT22;7379;51.506;11.876;2023-04-24T00:55:45;16.30;61.50
14585;DHT22;7379;51.506;11.876;2023-04-24T00:58:12;16.30;61.50
14585;DHT22;7379;51.506;11.876;2023-04-24T01:00:39;16.30;61.60
14585;DHT22;7379;51.506;11.876;2023-04-24T01:03:06;16.30;61.60
14585;DHT22;7379;51.506;11.876;2023-04-24T01:05:34;16.30;61.70
14585;DHT22;7379;51.506;11.876;2023-04-24T01:08:01;16.30;61.70
14585;DHT22;7379;51.506;11.876;2023-04-24T01:10:29;16.30;61.80
14585;DHT22;7379;51.506;11.876;2023-04-24T01:12:59;16.20;61.70
14585;DHT22;7379;51.506;11.876;2023-04-24T01:15:26;16.20;61.80
14585;DHT22;7379;51.506;11.876;2023-04-24T01:17:53;16.20;61.90
14585;DHT22;7379;51.506;11.876;2023-04-24T01:20:19;16.20;61.90
14585;DHT22;7379;51.506;11.876;2023-04-24T01:22:48;16.20;62.00
14585;DHT22;7379;51.506;11.876;2023-04-24T01:25:15;16.20;62.10
14585;DHT22;7379;51.506;11.876;2023-04-24T01:27:42;16.20;62.10
14585;DHT22;7379;51.506;11.876;2023-04-24T01:30:10;16.10;62.10
14585;DHT22;7379;51.506;11.876;2023-04-24T01:32:37;16.10;62.10
14585;DHT22;7379;51.506;11.876;2023-04-24T01:35:06;16.10;62.20
14585;DHT22;7379;51.506;11.876;2023-04-24T01:37:33;16.10;62.20
14585;DHT22;7379;51.506;11.876;2023-04-24T01:40:04;16.10;62.20
14585;DHT22;7379;51.506;11.876;2023-04-24T01:42:32;16.10;62.30
14585;DHT22;7379;51.506;11.876;2023-04-24T01:44:59;16.10;62.40
14585;DHT22;7379;51.506;11.876;2023-04-24T01:47:26;16.10;62.40
14585;DHT22;7379;51.506;11.876;2023-04-24T01:49:53;16.10;62.40
14585;DHT22;7379;51.506;11.876;2023-04-24T01:52:20;16.00;62.40
14585;DHT22;7379;51.506;11.876;2023-04-24T01:54:47;16.00;63.20
14585;DHT22;7379;51.506;11.876;2023-04-24T01:57:16;16.00;62.50
14585;DHT22;7379;51.506;11.876;2023-04-24T01:59:43;16.00;62.50
14585;DHT22;7379;51.506;11.876;2023-04-24T02:02:09;16.00;62.60
14585;DHT22;7379;51.506;11.876;2023-04-24T02:04:36;16.00;62.60
14585;DHT22;7379;51.506;11.876;2023-04-24T02:07:03;15.90;62.60
14585;DHT22;7379;51.506;11.876;2023-04-24T02:09:30;15.90;62.60
14585;DHT22;7379;51.506;11.876;2023-04-24T02:11:57;15.90;62.60
14585;DHT22;7379;51.506;11.876;2023-04-24T02:14:25;15.90;62.80
14585;DHT22;7379;51.506;11.876;2023-04-24T02:16:52;15.90;62.80
14585;DHT22;7379;51.506;11.876;2023-04-24T02:19:19;15.90;62.80
14585;DHT22;7379;51.506;11.876;2023-04-24T02:21:46;15.90;62.90
14585;DHT22;7379;51.506;11.876;2023-04-24T02:24:13;15.80;62.80
14585;DHT22;7379;51.506;11.876;2023-04-24T02:26:40;15.80;62.90
14585;DHT22;7379;51.506;11.876;2023-04-24T02:29:06;15.80;62.90
14585;DHT22;7379;51.506;11.876;2023-04-24T02:31:34;15.80;63.00
14585;DHT22;7379;51.506;11.876;2023-04-24T02:34:01;15.80;63.10
14585;DHT22;7379;51.506;11.876;2023-04-24T02:36:28;15.80;63.10
14585;DHT22;7379;51.506;11.876;2023-04-24T02:38:55;15.80;63.20
14585;DHT22;7379;51.506;11.876;2023-04-24T02:41:22;15.70;63.10
14585;DHT22;7379;51.506;11.876;2023-04-24T02:43:49;15.70;63.10
14585;DHT22;7379;51.506;11.876;2023-04-24T02:46:16;15.70;63.20
14585;DHT22;7379;51.506;11.876;2023-04-24T02:48:44;15.70;63.20
14585;DHT22;7379;51.506;11.876;2023-04-24T02:51:10;15.70;63.20
14585;DHT22;7379;51.506;11.876;2023-04-24T02:53:37;15.70;63.30
14585;DHT22;7379;51.506;11.876;2023-04-24T02:56:04;15.60;63.20
14585;DHT22;7379;51.506;11.876;2023-04-24T02:58:31;15.60;63.30
14585;DHT22;7379;51.506;11.876;2023-04-24T03:00:58;15.60;63.30
14585;DHT22;7379;51.506;11.876;2023-04-24T03:03:25;15.60;63.30
14585;DHT22;7379;51.506;11.876;2023-04-24T03:05:53;15.60;63.40
14585;DHT22;7379;51.506;11.876;2023-04-24T03:08:20;15.60;63.50
14585;DHT22;7379;51.506;11.876;2023-04-24T03:10:47;15.60;63.40
14585;DHT22;7379;51.506;11.876;2023-04-24T03:13:15;15.60;63.50
14585;DHT22;7379;51.506;11.876;2023-04-24T03:15:42;15.50;63.40
14585;DHT22;7379;51.506;11.876;2023-04-24T03:18:10;15.50;63.40
14585;DHT22;7379;51.506;11.876;2023-04-24T03:20:37;15.50;63.50
14585;DHT22;7379;51.506;11.876;2023-04-24T03:23:05;15.50;64.20
14585;DHT22;7379;51.506;11.876;2023-04-24T03:25:32;15.50;63.40
14585;DHT22;7379;51.506;11.876;2023-04-24T03:27:58;15.50;63.50
14585;DHT22;7379;51.506;11.876;2023-04-24T03:30:25;15.50;63.60
14585;DHT22;7379;51.506;11.876;2023-04-24T03:32:52;15.50;63.60
14585;DHT22;7379;51.506;11.876;2023-04-24T03:35:19;15.50;63.60
14585;DHT22;7379;51.506;11.876;2023-04-24T03:37:46;15.40;63.50
14585;DHT22;7379;51.506;11.876;2023-04-24T03:40:14;15.40;63.60
14585;DHT22;7379;51.506;11.876;2023-04-24T03:42:41;15.40;63.60
14585;DHT22;7379;51.506;11.876;2023-04-24T03:45:09;15.40;63.60
14585;DHT22;7379;51.506;11.876;2023-04-24T03:47:36;15.40;63.60
14585;DHT22;7379;51.506;11.876;2023-04-24T03:50:03;15.40;63.60
14585;DHT22;7379;51.506;11.876;2023-04-24T03:52:30;15.30;63.50
14585;DHT22;7379;51.506;11.876;2023-04-24T03:54:57;15.30;63.50
14585;DHT22;7379;51.506;11.876;2023-04-24T03:57:25;15.30;63.50
14585;DHT22;7379;51.506;11.876;2023-04-24T03:59:52;15.30;63.60
14585;DHT22;7379;51.506;11.876;2023-04-24T04:02:19;15.30;63.60
14585;DHT22;7379;51.506;11.876;2023-04-24T04:04:46;15.30;63.60
14585;DHT22;7379;51.506;11.876;2023-04-24T04:07:13;15.30;63.60
14585;DHT22;7379;51.506;11.876;2023-04-24T04:09:39;15.30;63.70
14585;DHT22;7379;51.506;11.876;2023-04-24T04:12:06;15.20;63.60
14585;DHT22;7379;51.506;11.876;2023-04-24T04:14:34;15.30;63.70
14585;DHT22;7379;51.506;11.876;2023-04-24T04:17:01;15.20;64.40
14585;DHT22;7379;51.506;11.876;2023-04-24T04:19:28;15.20;63.60
14585;DHT22;7379;51.506;11.876;2023-04-24T04:21:55;15.20;63.60
14585;DHT22;7379;51.506;11.876;2023-04-24T04:24:22;15.20;63.60
14585;DHT22;7379;51.506;11.876;2023-04-24T04:26:49;15.20;63.70
14585;DHT22;7379;51.506;11.876;2023-04-24T04:29:16;15.20;63.70
14585;DHT22;7379;51.506;11.876;2023-04-24T04:31:45;15.20;63.70
14585;DHT22;7379;51.506;11.876;2023-04-24T04:34:11;15.20;63.70
14585;DHT22;7379;51.506;11.876;2023-04-24T04:36:39;15.10;63.70
14585;DHT22;7379;51.506;11.876;2023-04-24T04:39:06;15.10;63.70
14585;DHT22;7379;51.506;11.876;2023-04-24T04:41:33;15.10;63.80
14585;DHT22;7379;51.506;11.876;2023-04-24T04:44:01;15.10;63.80
14585;DHT22;7379;51.506;11.876;2023-04-24T04:46:30;15.10;63.90
14585;DHT22;7379;51.506;11.876;2023-04-24T04:48:59;15.10;63.90
14585;DHT22;7379;51.506;11.876;2023-04-24T04:51:26;15.10;63.90
14585;DHT22;7379;51.506;11.876;2023-04-24T04:53:53;15.10;63.90
14585;DHT22;7379;51.506;11.876;2023-04-24T04:56:20;15.10;64.00
14585;DHT22;7379;51.506;11.876;2023-04-24T04:58:47;15.10;63.90
14585;DHT22;7379;51.506;11.876;2023-04-24T05:01:14;15.00;63.80
14585;DHT22;7379;51.506;11.876;2023-04-24T05:03:41;15.00;63.80
14585;DHT22;7379;51.506;11.876;2023-04-24T05:06:09;15.00;63.90
14585;DHT22;7379;51.506;11.876;2023-04-24T05:08:36;15.00;63.90
14585;DHT22;7379;51.506;11.876;2023-04-24T05:11:03;15.00;63.90
14585;DHT22;7379;51.506;11.876;2023-04-24T05:13:30;15.00;64.00
14585;DHT22;7379;51.506;11.876;2023-04-24T05:15:57;15.00;64.00
14585;DHT22;7379;51.506;11.876;2023-04-24T05:18:24;15.00;64.80
14585;DHT22;7379;51.506;11.876;2023-04-24T05:20:51;15.00;64.00
14585;DHT22;7379;51.506;11.876;2023-04-24T05:23:19;15.00;64.00
14585;DHT22;7379;51.506;11.876;2023-04-24T05:25:46;15.00;64.10
14585;DHT22;7379;51.506;11.876;2023-04-24T05:28:13;15.00;64.10
14585;DHT22;7379;51.506;11.876;2023-04-24T05:30:40;15.00;64.00
14585;DHT22;7379;51.506;11.876;2023-04-24T05:33:07;15.00;64.10
14585;DHT22;7379;51.506;11.876;2023-04-24T05:35:35;15.00;64.10
14585;DHT22;7379;51.506;11.876;2023-04-24T05:38:02;15.00;64.10
14585;DHT22;7379;51.506;11.876;2023-04-24T05:40:30;15.00;64.20
14585;DHT22;7379;51.506;11.876;2023-04-24T05:42:57;15.00;64.20
14585;DHT22;7379;51.506;11.876;2023-04-24T05:45:23;15.00;64.20
14585;DHT22;7379;51.506;11.876;2023-04-24T05:47:50;15.00;64.20
14585;DHT22;7379;51.506;11.876;2023-04-24T05:50:18;15.00;64.20
14585;DHT22;7379;51.506;11.876;2023-04-24T05:52:44;15.00;64.10
14585;DHT22;7379;51.506;11.876;2023-04-24T05:55:11;15.00;64.20
14585;DHT22;7379;51.506;11.876;2023-04-24T05:57:40;15.00;64.60
14585;DHT22;7379;51.506;11.876;2023-04-24T06:00:07;15.00;64.80
14585;DHT22;7379;51.506;11.876;2023-04-24T06:02:37;15.10;64.80
14585;DHT22;7379;51.506;11.876;2023-04-24T06:05:04;15.10;64.70
14585;DHT22;7379;51.506;11.876;2023-04-24T06:07:31;15.20;64.70
14585;DHT22;7379;51.506;11.876;2023-04-24T06:09:58;15.20;64.70
14585;DHT22;7379;51.506;11.876;2023-04-24T06:12:25;15.20;64.70
14585;DHT22;7379;51.506;11.876;2023-04-24T06:14:54;15.20;64.80
14585;DHT22;7379;51.506;11.876;2023-04-24T06:17:21;15.20;64.70
14585;DHT22;7379;51.506;11.876;2023-04-24T06:19:48;15.20;64.60
14585;DHT22;7379;51.506;11.876;2023-04-24T06:22:15;15.20;64.60
14585;DHT22;7379;51.506;11.876;2023-04-24T06:24:41;15.20;64.80
14585;DHT22;7379;51.506;11.876;2023-04-24T06:27:08;15.20;64.70
14585;DHT22;7379;51.506;11.876;2023-04-24T06:29:36;15.20;64.60
14585;DHT22;7379;51.506;11.876;2023-04-24T06:32:04;15.10;64.50
14585;DHT22;7379;51.506;11.876;2023-04-24T06:34:31;15.10;64.50
14585;DHT22;7379;51.506;11.876;2023-04-24T06:36:59;15.10;64.50
14585;DHT22;7379;51.506;11.876;2023-04-24T06:39:26;15.10;64.60
14585;DHT22;7379;51.506;11.876;2023-04-24T06:41:53;15.10;64.70
14585;DHT22;7379;51.506;11.876;2023-04-24T06:44:19;15.10;65.20
14585;DHT22;7379;51.506;11.876;2023-04-24T06:46:46;15.10;65.20
14585;DHT22;7379;51.506;11.876;2023-04-24T06:49:14;15.10;65.10
14585;DHT22;7379;51.506;11.876;2023-04-24T06:51:41;15.20;65.10
14585;DHT22;7379;51.506;11.876;2023-04-24T06:54:08;15.20;65.00
14585;DHT22;7379;51.506;11.876;2023-04-24T06:56:35;15.20;65.00
14585;DHT22;7379;51.506;11.876;2023-04-24T06:59:02;15.20;65.00
14585;DHT22;7379;51.506;11.876;2023-04-24T07:01:29;15.20;65.00
14585;DHT22;7379;51.506;11.876;2023-04-24T07:03:55;15.10;64.90
14585;DHT22;7379;51.506;11.876;2023-04-24T07:06:24;15.10;65.00
14585;DHT22;7379;51.506;11.876;2023-04-24T07:08:51;15.10;65.20
14585;DHT22;7379;51.506;11.876;2023-04-24T07:11:18;15.10;65.30
14585;DHT22;7379;51.506;11.876;2023-04-24T07:13:45;15.20;65.40
14585;DHT22;7379;51.506;11.876;2023-04-24T07:16:12;15.20;65.40
14585;DHT22;7379;51.506;11.876;2023-04-24T07:18:39;15.20;65.30
14585;DHT22;7379;51.506;11.876;2023-04-24T07:21:06;15.30;65.30
14585;DHT22;7379;51.506;11.876;2023-04-24T07:23:34;15.30;65.20
14585;DHT22;7379;51.506;11.876;2023-04-24T07:26:01;15.30;65.10
14585;DHT22;7379;51.506;11.876;2023-04-24T07:28:28;15.30;65.00
14585;DHT22;7379;51.506;11.876;2023-04-24T07:30:56;15.40;65.00
14585;DHT22;7379;51.506;11.876;2023-04-24T07:33:25;15.40;64.90
14585;DHT22;7379;51.506;11.876;2023-04-24T07:35:52;15.40;64.70
14585;DHT22;7379;51.506;11.876;2023-04-24T07:38:18;15.40;64.60
14585;DHT22;7379;51.506;11.876;2023-04-24T07:40:49;15.40;64.60
14585;DHT22;7379;51.506;11.876;2023-04-24T07:43:15;15.40;64.60
14585;DHT22;7379;51.506;11.876;2023-04-24T07:45:42;15.40;64.60
14585;DHT22;7379;51.506;11.876;2023-04-24T07:48:09;15.40;65.20
14585;DHT22;7379;51.506;11.876;2023-04-24T07:50:36;15.40;64.40
14585;DHT22;7379;51.506;11.876;2023-04-24T07:53:03;15.40;64.40
14585;DHT22;7379;51.506;11.876;2023-04-24T07:55:29;15.30;64.20
14585;DHT22;7379;51.506;11.876;2023-04-24T07:57:58;15.30;64.30
14585;DHT22;7379;51.506;11.876;2023-04-24T08:00:25;15.30;64.30
14585;DHT22;7379;51.506;11.876;2023-04-24T08:02:52;15.30;64.20
14585;DHT22;7379;51.506;11.876;2023-04-24T08:05:18;15.30;64.20
14585;DHT22;7379;51.506;11.876;2023-04-24T08:07:46;15.30;64.20
14585;DHT22;7379;51.506;11.876;2023-04-24T08:10:14;15.30;64.10
14585;DHT22;7379;51.506;11.876;2023-04-24T08:12:41;15.30;64.10
14585;DHT22;7379;51.506;11.876;2023-04-24T08:15:10;15.30;64.00
14585;DHT22;7379;51.506;11.876;2023-04-24T08:17:37;15.30;63.90
14585;DHT22;7379;51.506;11.876;2023-04-24T08:20:04;15.30;64.00
14585;DHT22;7379;51.506;11.876;2023-04-24T08:22:35;15.30;63.90
14585;DHT22;7379;51.506;11.876;2023-04-24T08:25:02;15.40;63.90
14585;DHT22;7379;51.506;11.876;2023-04-24T08:27:29;15.40;63.70
14585;DHT22;7379;51.506;11.876;2023-04-24T08:29:57;15.50;63.60
14585;DHT22;7379;51.506;11.876;2023-04-24T08:32:25;15.50;63.50
14585;DHT22;7379;51.506;11.876;2023-04-24T08:34:55;15.50;63.30
14585;DHT22;7379;51.506;11.876;2023-04-24T08:37:22;15.50;63.10
14585;DHT22;7379;51.506;11.876;2023-04-24T08:39:49;15.50;62.90
14585;DHT22;7379;51.506;11.876;2023-04-24T08:42:17;15.60;62.60
14585;DHT22;7379;51.506;11.876;2023-04-24T08:44:44;15.60;62.00
14585;DHT22;7379;51.506;11.876;2023-04-24T08:47:11;15.50;61.50
14585;DHT22;7379;51.506;11.876;2023-04-24T08:49:39;15.60;61.10
14585;DHT22;7379;51.506;11.876;2023-04-24T08:52:06;15.50;60.80
14585;DHT22;7379;51.506;11.876;2023-04-24T08:54:34;15.50;60.70
14585;DHT22;7379;51.506;11.876;2023-04-24T08:57:02;15.50;60.50
14585;DHT22;7379;51.506;11.876;2023-04-24T08:59:29;15.50;60.60
14585;DHT22;7379;51.506;11.876;2023-04-24T09:01:57;15.50;61.10
14585;DHT22;7379;51.506;11.876;2023-04-24T09:04:25;15.50;59.90
14585;DHT22;7379;51.506;11.876;2023-04-24T09:10:15;15.50;59.70
14585;DHT22;7379;51.506;11.876;2023-04-24T09:12:44;15.50;59.50
14585;DHT22;7379;51.506;11.876;2023-04-24T09:15:11;15.50;60.20
14585;DHT22;7379;51.506;11.876;2023-04-24T09:17:38;15.50;59.50
14585;DHT22;7379;51.506;11.876;2023-04-24T09:20:06;15.50;59.20
14585;DHT22;7379;51.506;11.876;2023-04-24T09:22:34;15.50;58.80
14585;DHT22;7379;51.506;11.876;2023-04-24T09:25:02;15.50;58.10
14585;DHT22;7379;51.506;11.876;2023-04-24T09:27:33;15.50;57.90
14585;DHT22;7379;51.506;11.876;2023-04-24T09:30:01;15.50;57.90
14585;DHT22;7379;51.506;11.876;2023-04-24T09:32:28;15.50;57.90
14585;DHT22;7379;51.506;11.876;2023-04-24T09:35:09;15.50;57.90
14585;DHT22;7379;51.506;11.876;2023-04-24T09:37:38;15.50;57.60
14585;DHT22;7379;51.506;11.876;2023-04-24T09:40:15;15.50;57.30
14585;DHT22;7379;51.506;11.876;2023-04-24T09:42:46;15.50;56.90
14585;DHT22;7379;51.506;11.876;2023-04-24T09:45:17;15.50;56.70
14585;DHT22;7379;51.506;11.876;2023-04-24T09:47:44;15.50;56.60
14585;DHT22;7379;51.506;11.876;2023-04-24T09:50:13;15.50;56.30
14585;DHT22;7379;51.506;11.876;2023-04-24T09:52:42;15.50;56.00
14585;DHT22;7379;51.506;11.876;2023-04-24T09:55:15;15.50;55.80
14585;DHT22;7379;51.506;11.876;2023-04-24T09:57:50;15.50;55.50
14585;DHT22;7379;51.506;11.876;2023-04-24T10:00:20;15.50;55.10
14585;DHT22;7379;51.506;11.876;2023-04-24T10:02:50;15.50;55.20
14585;DHT22;7379;51.506;11.876;2023-04-24T10:05:18;15.50;55.00
14585;DHT22;7379;51.506;11.876;2023-04-24T10:07:45;15.50;54.70
14585;DHT22;7379;51.506;11.876;2023-04-24T10:10:12;15.50;54.30
14585;DHT22;7379;51.506;11.876;2023-04-24T10:12:39;15.50;54.10
14585;DHT22;7379;51.506;11.876;2023-04-24T10:15:10;15.50;54.50
14585;DHT22;7379;51.506;11.876;2023-04-24T10:17:39;15.50;54.30
14585;DHT22;7379;51.506;11.876;2023-04-24T10:20:07;15.50;54.30
14585;DHT22;7379;51.506;11.876;2023-04-24T10:22:34;15.50;54.20
14585;DHT22;7379;51.506;11.876;2023-04-24T10:25:04;15.50;54.20
14585;DHT22;7379;51.506;11.876;2023-04-24T10:27:32;15.50;54.30
14585;DHT22;7379;51.506;11.876;2023-04-24T10:30:01;15.50;54.10
14585;DHT22;7379;51.506;11.876;2023-04-24T10:32:30;15.50;54.10
14585;DHT22;7379;51.506;11.876;2023-04-24T10:34:56;15.50;53.90
14585;DHT22;7379;51.506;11.876;2023-04-24T10:37:24;15.60;53.70
14585;DHT22;7379;51.506;11.876;2023-04-24T10:39:51;15.50;53.30
14585;DHT22;7379;51.506;11.876;2023-04-24T10:42:20;15.50;52.80
14585;DHT22;7379;51.506;11.876;2023-04-24T10:44:48;15.50;52.60
14585;DHT22;7379;51.506;11.876;2023-04-24T10:47:15;15.50;52.30
14585;DHT22;7379;51.506;11.876;2023-04-24T10:49:43;15.50;52.40
14585;DHT22;7379;51.506;11.876;2023-04-24T10:52:10;15.50;52.40
14585;DHT22;7379;51.506;11.876;2023-04-24T10:54:42;15.50;52.20
14585;DHT22;7379;51.506;11.876;2023-04-24T10:57:26;15.50;52.10
14585;DHT22;7379;51.506;11.876;2023-04-24T11:00:16;15.60;51.90
14585;DHT22;7379;51.506;11.876;2023-04-24T11:02:46;15.60;51.90
14585;DHT22;7379;51.506;11.876;2023-04-24T11:05:20;15.60;52.00
14585;DHT22;7379;51.506;11.876;2023-04-24T11:08:12;15.60;52.00
14585;DHT22;7379;51.506;11.876;2023-04-24T11:10:40;15.60;52.50
14585;DHT22;7379;51.506;11.876;2023-04-24T11:13:07;15.60;51.70
14585;DHT22;7379;51.506;11.876;2023-04-24T11:15:35;15.60;51.70
14585;DHT22;7379;51.506;11.876;2023-04-24T11:18:01;15.60;51.80
14585;DHT22;7379;51.506;11.876;2023-04-24T11:20:30;15.60;51.60
14585;DHT22;7379;51.506;11.876;2023-04-24T11:23:03;15.60;51.40
14585;DHT22;7379;51.506;11.876;2023-04-24T11:25:32;15.70;51.10
14585;DHT22;7379;51.506;11.876;2023-04-24T11:28:04;15.70;51.10
14585;DHT22;7379;51.506;11.876;2023-04-24T11:30:32;15.70;50.70
14585;DHT22;7379;51.506;11.876;2023-04-24T11:33:02;15.70;50.90
14585;DHT22;7379;51.506;11.876;2023-04-24T11:35:35;15.80;51.10
14585;DHT22;7379;51.506;11.876;2023-04-24T11:38:04;15.80;51.10
14585;DHT22;7379;51.506;11.876;2023-04-24T11:40:31;15.80;51.00
14585;DHT22;7379;51.506;11.876;2023-04-24T11:42:59;15.80;50.80
14585;DHT22;7379;51.506;11.876;2023-04-24T11:45:27;15.80;51.10
14585;DHT22;7379;51.506;11.876;2023-04-24T11:47:54;15.80;50.90
14585;DHT22;7379;51.506;11.876;2023-04-24T11:50:22;15.80;51.20
14585;DHT22;7379;51.506;11.876;2023-04-24T11:52:52;15.80;50.70
14585;DHT22;7379;51.506;11.876;2023-04-24T11:55:27;15.80;50.70
14585;DHT22;7379;51.506;11.876;2023-04-24T11:57:56;15.80;50.90
14585;DHT22;7379;51.506;11.876;2023-04-24T12:00:25;15.80;50.80
14585;DHT22;7379;51.506;11.876;2023-04-24T12:03:02;15.80;50.60
14585;DHT22;7379;51.506;11.876;2023-04-24T12:05:30;15.80;50.10
14585;DHT22;7379;51.506;11.876;2023-04-24T12:07:59;15.90;49.60
14585;DHT22;7379;51.506;11.876;2023-04-24T12:10:27;16.00;49.30
14585;DHT22;7379;51.506;11.876;2023-04-24T12:12:55;16.10;48.80
14585;DHT22;7379;51.506;11.876;2023-04-24T12:15:23;16.10;47.70
14585;DHT22;7379;51.506;11.876;2023-04-24T12:17:51;16.20;47.90
14585;DHT22;7379;51.506;11.876;2023-04-24T12:20:24;16.20;47.70
14585;DHT22;7379;51.506;11.876;2023-04-24T12:22:52;16.20;47.50
14585;DHT22;7379;51.506;11.876;2023-04-24T12:25:22;16.20;47.20
14585;DHT22;7379;51.506;11.876;2023-04-24T12:27:54;16.20;47.60
14585;DHT22;7379;51.506;11.876;2023-04-24T12:30:22;16.20;47.70
14585;DHT22;7379;51.506;11.876;2023-04-24T12:32:52;16.20;47.90
14585;DHT22;7379;51.506;11.876;2023-04-24T12:35:22;16.10;48.30
14585;DHT22;7379;51.506;11.876;2023-04-24T12:37:49;16.10;48.60
14585;DHT22;7379;51.506;11.876;2023-04-24T12:40:17;16.00;48.40
14585;DHT22;7379;51.506;11.876;2023-04-24T12:42:47;16.00;48.10
14585;DHT22;7379;51.506;11.876;2023-04-24T12:45:15;16.00;48.20
14585;DHT22;7379;51.506;11.876;2023-04-24T12:47:43;16.10;48.40
14585;DHT22;7379;51.506;11.876;2023-04-24T12:50:11;16.10;48.40
14585;DHT22;7379;51.506;11.876;2023-04-24T12:52:39;16.10;48.60
14585;DHT22;7379;51.506;11.876;2023-04-24T12:55:07;16.10;48.70
14585;DHT22;7379;51.506;11.876;2023-04-24T12:57:35;16.20;48.70
14585;DHT22;7379;51.506;11.876;2023-04-24T13:00:05;16.20;48.50
14585;DHT22;7379;51.506;11.876;2023-04-24T13:02:33;16.40;48.20
14585;DHT22;7379;51.506;11.876;2023-04-24T13:05:01;16.40;47.80
14585;DHT22;7379;51.506;11.876;2023-04-24T13:07:28;16.50;47.60
14585;DHT22;7379;51.506;11.876;2023-04-24T13:09:55;16.70;47.40
14585;DHT22;7379;51.506;11.876;2023-04-24T13:12:23;17.00;47.00
14585;DHT22;7379;51.506;11.876;2023-04-24T13:14:50;17.10;46.70
14585;DHT22;7379;51.506;11.876;2023-04-24T13:17:19;17.00;46.70
14585;DHT22;7379;51.506;11.876;2023-04-24T13:19:45;16.90;46.90
14585;DHT22;7379;51.506;11.876;2023-04-24T13:22:13;16.80;47.00
14585;DHT22;7379;51.506;11.876;2023-04-24T13:24:40;16.70;47.20
14585;DHT22;7379;51.506;11.876;2023-04-24T13:27:07;16.90;47.30
14585;DHT22;7379;51.506;11.876;2023-04-24T13:29:34;16.80;47.20
14585;DHT22;7379;51.506;11.876;2023-04-24T13:32:01;16.70;47.40
14585;DHT22;7379;51.506;11.876;2023-04-24T13:34:29;16.60;47.80
14585;DHT22;7379;51.506;11.876;2023-04-24T13:36:57;16.50;48.30
14585;DHT22;7379;51.506;11.876;2023-04-24T13:39:25;16.40;48.60
14585;DHT22;7379;51.506;11.876;2023-04-24T13:41:52;16.40;48.70
14585;DHT22;7379;51.506;11.876;2023-04-24T13:44:20;16.30;48.80
14585;DHT22;7379;51.506;11.876;2023-04-24T13:46:48;16.30;48.90
14585;DHT22;7379;51.506;11.876;2023-04-24T13:49:15;16.20;49.00
14585;DHT22;7379;51.506;11.876;2023-04-24T13:51:44;16.20;49.00
14585;DHT22;7379;51.506;11.876;2023-04-24T13:54:11;16.40;48.80
14585;DHT22;7379;51.506;11.876;2023-04-24T13:56:39;16.70;48.20
14585;DHT22;7379;51.506;11.876;2023-04-24T13:59:06;16.80;48.00
14585;DHT22;7379;51.506;11.876;2023-04-24T14:01:33;16.80;47.90
14585;DHT22;7379;51.506;11.876;2023-04-24T14:03:59;16.80;48.30
14585;DHT22;7379;51.506;11.876;2023-04-24T14:06:26;16.60;48.40
14585;DHT22;7379;51.506;11.876;2023-04-24T14:08:54;16.60;48.70
14585;DHT22;7379;51.506;11.876;2023-04-24T14:11:21;16.50;49.00
14585;DHT22;7379;51.506;11.876;2023-04-24T14:13:48;16.40;49.30
14585;DHT22;7379;51.506;11.876;2023-04-24T14:16:15;16.40;49.60
14585;DHT22;7379;51.506;11.876;2023-04-24T14:18:42;16.30;49.70
14585;DHT22;7379;51.506;11.876;2023-04-24T14:21:09;16.40;50.30
14585;DHT22;7379;51.506;11.876;2023-04-24T14:23:35;16.60;50.10
14585;DHT22;7379;51.506;11.876;2023-04-24T14:26:04;16.70;49.90
14585;DHT22;7379;51.506;11.876;2023-04-24T14:28:31;16.80;50.00
14585;DHT22;7379;51.506;11.876;2023-04-24T14:30:57;16.70;49.90
14585;DHT22;7379;51.506;11.876;2023-04-24T14:33:24;16.60;50.20
14585;DHT22;7379;51.506;11.876;2023-04-24T14:35:51;16.50;50.40
14585;DHT22;7379;51.506;11.876;2023-04-24T14:38:18;16.50;50.40
14585;DHT22;7379;51.506;11.876;2023-04-24T14:40:44;16.40;50.30
14585;DHT22;7379;51.506;11.876;2023-04-24T14:43:12;16.40;50.60
14585;DHT22;7379;51.506;11.876;2023-04-24T14:45:39;16.40;50.80
14585;DHT22;7379;51.506;11.876;2023-04-24T14:48:07;16.30;50.80
14585;DHT22;7379;51.506;11.876;2023-04-24T14:50:34;16.30;51.00
14585;DHT22;7379;51.506;11.876;2023-04-24T14:53:01;16.20;51.10
14585;DHT22;7379;51.506;11.876;2023-04-24T14:55:28;16.20;51.10
14585;DHT22;7379;51.506;11.876;2023-04-24T14:57:55;16.10;51.10
14585;DHT22;7379;51.506;11.876;2023-04-24T15:00:23;16.10;51.30
14585;DHT22;7379;51.506;11.876;2023-04-24T15:02:50;16.10;51.00
14585;DHT22;7379;51.506;11.876;2023-04-24T15:05:17;16.20;50.50
14585;DHT22;7379;51.506;11.876;2023-04-24T15:07:44;16.20;50.40
14585;DHT22;7379;51.506;11.876;2023-04-24T15:10:11;16.30;50.10
14585;DHT22;7379;51.506;11.876;2023-04-24T15:12:38;16.30;50.00
14585;DHT22;7379;51.506;11.876;2023-04-24T15:15:06;16.30;50.30
14585;DHT22;7379;51.506;11.876;2023-04-24T15:17:34;16.30;50.50
14585;DHT22;7379;51.506;11.876;2023-04-24T15:20:01;16.20;50.50
14585;DHT22;7379;51.506;11.876;2023-04-24T15:22:29;16.10;50.70
14585;DHT22;7379;51.506;11.876;2023-04-24T15:24:55;16.10;50.90
14585;DHT22;7379;51.506;11.876;2023-04-24T15:27:22;16.10;51.00
14585;DHT22;7379;51.506;11.876;2023-04-24T15:29:49;16.00;50.60
14585;DHT22;7379;51.506;11.876;2023-04-24T15:32:16;16.10;50.10
14585;DHT22;7379;51.506;11.876;2023-04-24T15:34:44;16.30;49.50
14585;DHT22;7379;51.506;11.876;2023-04-24T15:40:33;16.50;48.20